createdAt,value
2017-07-19T00:00:46.053Z,0
2017-07-19T00:01:55.973Z,0
2017-07-19T00:03:05.882Z,0
2017-07-19T00:04:15.810Z,0
2017-07-19T00:05:24.819Z,0
2017-07-19T00:06:34.740Z,0
2017-07-19T00:07:44.674Z,0
2017-07-19T00:08:54.578Z,0
2017-07-19T00:10:04.511Z,0
2017-07-19T00:11:13.817Z,0
2017-07-19T00:12:24.039Z,0
2017-07-19T00:13:34.257Z,0
2017-07-19T00:14:44.170Z,0
2017-07-19T00:15:53.780Z,0
2017-07-19T00:17:03.995Z,0
2017-07-19T00:18:13.913Z,0
2017-07-19T00:19:23.825Z,0
2017-07-19T00:20:33.119Z,0
2017-07-19T00:21:43.028Z,0
2017-07-19T00:22:52.939Z,0
2017-07-19T00:24:02.540Z,0
2017-07-19T00:25:12.462Z,0
2017-07-19T00:26:22.685Z,0
2017-07-19T00:27:32.916Z,0
2017-07-19T00:28:42.849Z,0
2017-07-19T00:29:53.110Z,0
2017-07-19T00:31:03.336Z,0
2017-07-19T00:32:13.554Z,0
2017-07-19T00:33:23.472Z,0
2017-07-19T00:34:33.394Z,0
2017-07-19T00:35:43.623Z,0
2017-07-19T00:36:53.532Z,0
2017-07-19T00:38:02.835Z,0
2017-07-19T00:39:13.065Z,0
2017-07-19T00:40:23.292Z,0
2017-07-19T00:41:33.235Z,0
2017-07-19T00:42:43.151Z,0
2017-07-19T00:43:53.077Z,0
2017-07-19T00:45:02.699Z,0
2017-07-19T00:46:12.027Z,0
2017-07-19T00:47:21.638Z,0
2017-07-19T00:48:31.862Z,0
2017-07-19T00:49:41.774Z,0
2017-07-19T00:50:51.684Z,0
2017-07-19T00:52:01.281Z,0
2017-07-19T00:53:11.493Z,0
2017-07-19T00:54:21.718Z,0
2017-07-19T00:55:31.932Z,0
2017-07-19T00:56:41.553Z,0
2017-07-19T00:57:51.168Z,0
2017-07-19T00:59:01.080Z,0
2017-07-19T01:00:10.754Z,0
2017-07-19T01:01:20.429Z,0
2017-07-19T01:02:30.842Z,0
2017-07-19T01:03:40.575Z,0
2017-07-19T01:04:50.621Z,0
2017-07-19T01:06:00.530Z,0
2017-07-19T01:07:09.824Z,0
2017-07-19T01:08:19.739Z,0
2017-07-19T01:09:29.658Z,0
2017-07-19T01:10:39.619Z,0
2017-07-19T01:11:49.861Z,0
2017-07-19T01:13:00.090Z,0
2017-07-19T01:14:10.024Z,0
2017-07-19T01:15:19.944Z,0
2017-07-19T01:16:29.543Z,0
2017-07-19T01:17:39.495Z,0
2017-07-19T01:18:49.724Z,0
2017-07-19T01:19:59.641Z,0
2017-07-19T01:21:09.268Z,0
2017-07-19T01:22:19.488Z,0
2017-07-19T01:23:29.417Z,0
2017-07-19T01:24:39.034Z,0
2017-07-19T01:25:48.954Z,0
2017-07-19T01:26:58.871Z,0
2017-07-19T01:28:08.799Z,0
2017-07-19T01:29:18.742Z,0
2017-07-19T01:30:28.969Z,0
2017-07-19T01:31:39.210Z,0
2017-07-19T01:32:49.122Z,0
2017-07-19T01:33:59.353Z,0
2017-07-19T01:35:08.976Z,0
2017-07-19T01:36:18.582Z,0
2017-07-19T01:37:28.803Z,0
2017-07-19T01:38:38.718Z,0
2017-07-19T01:39:48.943Z,0
2017-07-19T01:40:58.246Z,0
2017-07-19T01:42:07.857Z,0
2017-07-19T01:43:18.085Z,0
2017-07-19T01:44:27.704Z,0
2017-07-19T01:45:37.935Z,0
2017-07-19T01:46:48.167Z,0
2017-07-19T01:47:58.104Z,0
2017-07-19T01:49:08.014Z,0
2017-07-19T01:50:17.622Z,0
2017-07-19T01:51:27.547Z,0
2017-07-19T01:52:37.154Z,0
2017-07-19T01:53:47.058Z,0
2017-07-19T01:54:56.363Z,0
2017-07-19T01:56:06.618Z,0
2017-07-19T01:57:16.851Z,0
2017-07-19T01:58:26.770Z,0
2017-07-19T01:59:36.391Z,0
2017-07-19T02:00:46.321Z,0
2017-07-19T02:01:56.236Z,0
2017-07-19T02:03:06.459Z,0
2017-07-19T02:04:16.062Z,0
2017-07-19T02:05:25.977Z,0
2017-07-19T02:06:35.938Z,0
2017-07-19T02:07:45.851Z,0
2017-07-19T02:08:55.459Z,0
2017-07-19T02:10:05.381Z,0
2017-07-19T02:11:15.603Z,0
2017-07-19T02:12:24.607Z,0
2017-07-19T02:13:34.834Z,0
2017-07-19T02:14:44.745Z,0
2017-07-19T02:15:54.659Z,0
2017-07-19T02:17:04.575Z,0
2017-07-19T02:18:14.181Z,0
2017-07-19T02:19:23.809Z,0
2017-07-19T02:20:34.029Z,0
2017-07-19T02:21:44.255Z,0
2017-07-19T02:22:53.863Z,0
2017-07-19T02:24:03.475Z,0
2017-07-19T02:25:13.409Z,0
2017-07-19T02:26:23.626Z,0
2017-07-19T02:27:33.876Z,0
2017-07-19T02:28:43.792Z,0
2017-07-19T02:29:54.031Z,0
2017-07-19T02:31:04.259Z,0
2017-07-19T02:32:13.880Z,0
2017-07-19T02:33:23.793Z,0
2017-07-19T02:34:33.728Z,0
2017-07-19T02:35:43.341Z,0
2017-07-19T02:36:53.329Z,0
2017-07-19T02:38:03.573Z,0
2017-07-19T02:39:13.506Z,0
2017-07-19T02:40:23.119Z,0
2017-07-19T02:41:32.729Z,0
2017-07-19T02:42:42.343Z,0
2017-07-19T02:43:52.301Z,0
2017-07-19T02:45:02.531Z,0
2017-07-19T02:46:12.471Z,0
2017-07-19T02:47:22.401Z,0
2017-07-19T02:48:32.625Z,0
2017-07-19T02:49:42.531Z,0
2017-07-19T02:50:51.861Z,0
2017-07-19T02:52:00.854Z,0
2017-07-19T02:53:11.442Z,0
2017-07-19T02:54:20.754Z,0
2017-07-19T02:55:30.656Z,0
2017-07-19T02:56:40.604Z,0
2017-07-19T02:57:50.552Z,0
2017-07-19T02:59:00.766Z,0
2017-07-19T03:00:10.367Z,0
2017-07-19T03:01:20.295Z,0
2017-07-19T03:02:30.524Z,0
2017-07-19T03:03:40.134Z,0
2017-07-19T03:04:50.049Z,0
2017-07-19T03:05:59.657Z,0
2017-07-19T03:07:09.268Z,0
2017-07-19T03:08:19.201Z,0
2017-07-19T03:09:28.806Z,0
2017-07-19T03:10:38.117Z,0
2017-07-19T03:11:48.337Z,4
2017-07-19T03:12:58.259Z,4
2017-07-19T03:14:08.487Z,0
2017-07-19T03:15:18.400Z,0
2017-07-19T03:16:27.711Z,4
2017-07-19T03:17:37.810Z,4
2017-07-19T03:18:47.716Z,4
2017-07-19T03:19:57.329Z,4
2017-07-19T03:21:07.266Z,4
2017-07-19T03:22:17.179Z,8
2017-07-19T03:23:26.788Z,8
2017-07-19T03:24:36.735Z,12
2017-07-19T03:25:46.968Z,12
2017-07-19T03:26:56.886Z,12
2017-07-19T03:28:06.812Z,12
2017-07-19T03:29:16.418Z,16
2017-07-19T03:30:26.646Z,16
2017-07-19T03:31:36.260Z,20
2017-07-19T03:32:46.190Z,24
2017-07-19T03:33:55.807Z,24
2017-07-19T03:35:05.740Z,28
2017-07-19T03:36:15.967Z,32
2017-07-19T03:37:25.924Z,36
2017-07-19T03:38:35.232Z,40
2017-07-19T03:39:45.148Z,40
2017-07-19T03:40:54.443Z,44
2017-07-19T03:42:04.678Z,48
2017-07-19T03:43:14.904Z,56
2017-07-19T03:44:24.524Z,60
2017-07-19T03:45:34.434Z,68
2017-07-19T03:46:44.752Z,72
2017-07-19T03:47:54.978Z,84
2017-07-19T03:49:04.936Z,88
2017-07-19T03:50:14.848Z,92
2017-07-19T03:51:24.764Z,104
2017-07-19T03:52:34.685Z,112
2017-07-19T03:53:44.907Z,120
2017-07-19T03:54:55.141Z,128
2017-07-19T03:56:05.060Z,136
2017-07-19T03:57:14.677Z,144
2017-07-19T03:58:24.588Z,156
2017-07-19T03:59:34.504Z,164
2017-07-19T04:00:44.742Z,176
2017-07-19T04:01:54.651Z,184
2017-07-19T04:03:04.870Z,196
2017-07-19T04:04:15.094Z,208
2017-07-19T04:05:25.005Z,220
2017-07-19T04:06:34.615Z,228
2017-07-19T04:07:44.227Z,240
2017-07-19T04:08:54.138Z,252
2017-07-19T04:10:04.352Z,264
2017-07-19T04:11:13.660Z,272
2017-07-19T04:12:23.588Z,288
2017-07-19T04:13:33.850Z,304
2017-07-19T04:14:44.088Z,316
2017-07-19T04:15:54.310Z,332
2017-07-19T04:17:04.231Z,352
2017-07-19T04:18:13.842Z,368
2017-07-19T04:19:23.748Z,388
2017-07-19T04:20:33.367Z,408
2017-07-19T04:21:43.724Z,428
2017-07-19T04:22:53.644Z,448
2017-07-19T04:24:03.872Z,472
2017-07-19T04:25:13.782Z,488
2017-07-19T04:26:23.400Z,508
2017-07-19T04:27:32.699Z,532
2017-07-19T04:28:42.946Z,556
2017-07-19T04:29:52.875Z,584
2017-07-19T04:31:02.494Z,612
2017-07-19T04:32:12.106Z,632
2017-07-19T04:33:22.031Z,648
2017-07-19T04:34:31.964Z,660
2017-07-19T04:35:41.882Z,668
2017-07-19T04:36:52.102Z,676
2017-07-19T04:38:02.024Z,688
2017-07-19T04:39:12.244Z,728
2017-07-19T04:40:21.855Z,744
2017-07-19T04:41:31.783Z,736
2017-07-19T04:42:42.008Z,720
2017-07-19T04:43:51.921Z,692
2017-07-19T04:45:02.147Z,644
2017-07-19T04:46:11.772Z,612
2017-07-19T04:47:21.691Z,572
2017-07-19T04:48:31.299Z,556
2017-07-19T04:49:40.902Z,548
2017-07-19T04:50:50.817Z,540
2017-07-19T04:52:00.434Z,528
2017-07-19T04:53:10.048Z,532
2017-07-19T04:54:19.970Z,548
2017-07-19T04:55:29.603Z,568
2017-07-19T04:56:39.831Z,608
2017-07-19T04:57:50.054Z,648
2017-07-19T04:59:00.276Z,696
2017-07-19T05:00:09.888Z,752
2017-07-19T05:01:20.117Z,816
2017-07-19T05:02:30.025Z,864
2017-07-19T05:03:40.237Z,896
2017-07-19T05:04:50.160Z,920
2017-07-19T05:06:00.091Z,952
2017-07-19T05:07:10.017Z,976
2017-07-19T05:08:19.966Z,1012
2017-07-19T05:09:29.574Z,1096
2017-07-19T05:10:39.514Z,1080
2017-07-19T05:11:49.439Z,1108
2017-07-19T05:12:59.659Z,1152
2017-07-19T05:14:09.578Z,1208
2017-07-19T05:15:19.800Z,1264
2017-07-19T05:16:29.416Z,1312
2017-07-19T05:17:39.638Z,1356
2017-07-19T05:18:49.856Z,1400
2017-07-19T05:19:59.920Z,1436
2017-07-19T05:21:09.542Z,1492
2017-07-19T05:22:19.159Z,1636
2017-07-19T05:23:29.390Z,1908
2017-07-19T05:24:39.307Z,2140
2017-07-19T05:25:49.220Z,2260
2017-07-19T05:26:59.144Z,2344
2017-07-19T05:28:09.383Z,2384
2017-07-19T05:29:18.696Z,2384
2017-07-19T05:30:28.922Z,2440
2017-07-19T05:31:39.144Z,2516
2017-07-19T05:32:49.059Z,2812
2017-07-19T05:33:58.686Z,2924
2017-07-19T05:35:08.923Z,2992
2017-07-19T05:36:18.530Z,3136
2017-07-19T05:37:28.458Z,3272
2017-07-19T05:38:38.719Z,2968
2017-07-19T05:39:48.652Z,2712
2017-07-19T05:40:58.881Z,2576
2017-07-19T05:42:08.817Z,2652
2017-07-19T05:43:19.051Z,2816
2017-07-19T05:44:29.290Z,2876
2017-07-19T05:45:39.518Z,2932
2017-07-19T05:46:48.830Z,2952
2017-07-19T05:47:59.070Z,3184
2017-07-19T05:49:09.308Z,3192
2017-07-19T05:50:18.923Z,3120
2017-07-19T05:51:28.845Z,3156
2017-07-19T05:52:38.466Z,3080
2017-07-19T05:53:48.381Z,3120
2017-07-19T05:54:58.620Z,3176
2017-07-19T05:56:08.536Z,3252
2017-07-19T05:57:18.465Z,3540
2017-07-19T05:58:28.693Z,3536
2017-07-19T05:59:38.613Z,3532
2017-07-19T06:00:48.222Z,3864
2017-07-19T06:01:58.146Z,3616
2017-07-19T06:03:08.062Z,8568
2017-07-19T06:04:18.313Z,5608
2017-07-19T06:05:28.243Z,4036
2017-07-19T06:06:37.883Z,8896
2017-07-19T06:07:48.106Z,11124
2017-07-19T06:08:58.026Z,7260
2017-07-19T06:10:08.264Z,8960
2017-07-19T06:11:17.872Z,8112
2017-07-19T06:12:28.091Z,9992
2017-07-19T06:13:37.722Z,9124
2017-07-19T06:14:47.991Z,5348
2017-07-19T06:15:57.618Z,4376
2017-07-19T06:17:07.880Z,4396
2017-07-19T06:18:18.110Z,3844
2017-07-19T06:19:28.044Z,3696
2017-07-19T06:20:38.271Z,3656
2017-07-19T06:21:48.499Z,3672
2017-07-19T06:22:58.733Z,3776
2017-07-19T06:24:08.359Z,3952
2017-07-19T06:25:18.291Z,3908
2017-07-19T06:26:28.204Z,3960
2017-07-19T06:27:38.432Z,4088
2017-07-19T06:28:48.658Z,4048
2017-07-19T06:29:58.269Z,4112
2017-07-19T06:31:07.880Z,4200
2017-07-19T06:32:18.108Z,4336
2017-07-19T06:33:27.721Z,4460
2017-07-19T06:34:37.668Z,4528
2017-07-19T06:35:47.274Z,4660
2017-07-19T06:36:56.288Z,4916
2017-07-19T06:38:05.903Z,5372
2017-07-19T06:39:15.858Z,5932
2017-07-19T06:40:25.516Z,5780
2017-07-19T06:41:34.860Z,5252
2017-07-19T06:42:44.802Z,4828
2017-07-19T06:43:54.415Z,4444
2017-07-19T06:45:04.641Z,3420
2017-07-19T06:46:14.558Z,2580
2017-07-19T06:47:24.783Z,2368
2017-07-19T06:48:34.396Z,2324
2017-07-19T06:49:44.334Z,2316
2017-07-19T06:50:54.257Z,2332
2017-07-19T06:52:03.886Z,2376
2017-07-19T06:53:14.134Z,2420
2017-07-19T06:54:24.363Z,2476
2017-07-19T06:55:34.588Z,2572
2017-07-19T06:56:44.506Z,2712
2017-07-19T06:57:54.736Z,2936
2017-07-19T06:59:04.343Z,4132
2017-07-19T07:00:13.958Z,6324
2017-07-19T07:01:23.888Z,7968
2017-07-19T07:02:33.504Z,8892
2017-07-19T07:03:43.760Z,11016
2017-07-19T07:04:53.384Z,14624
2017-07-19T07:06:03.298Z,23008
2017-07-19T07:07:13.231Z,28704
2017-07-19T07:08:22.835Z,30816
2017-07-19T07:09:32.460Z,32768
2017-07-19T07:13:14.201Z,35296
2017-07-19T07:14:24.449Z,36000
2017-07-19T07:15:34.493Z,35776
2017-07-19T07:16:44.144Z,36128
2017-07-19T07:17:53.760Z,39360
2017-07-19T07:19:03.714Z,40352
2017-07-19T07:22:45.707Z,43872
2017-07-19T07:26:28.820Z,40736
2017-07-19T07:27:39.087Z,40512
2017-07-19T07:31:21.085Z,40768
